Time;durP1;ratioP1;P1;durP2;ratioP2;P2;SDS_P1;SDS_P2;PMS_P1;PMS_P2;Temp;Humidity;BMP_temperature;BMP_pressure;BME280_temperature;BME280_humidity;BME280_pressure;Samples;Min_cycle;Max_cycle;Signal;HPM_P1;HPM_P2
2021/05/06 00:29:58;;;;;;;9.88;2.88;;;22.80;40.10;;;;;;5072344;28;20032;-69
2021/05/06 00:32:29;;;;;;;12.57;2.90;;;22.50;41.10;;;;;;5074685;28;20032;-68
2021/05/06 00:34:56;;;;;;;12.40;3.35;;;22.20;41.40;;;;;;5071717;28;20477;-69
2021/05/06 00:37:22;;;;;;;10.98;2.95;;;22.00;42.10;;;;;;5076602;28;20102;-69
2021/05/06 00:39:55;;;;;;;12.38;3.30;;;21.80;42.50;;;;;;5069432;28;20016;-69
2021/05/06 00:43:09;;;;;;;;;;;21.60;42.40;;;;;;5087319;28;20093;-69
2021/05/06 01:07:06;;;;;;;13.38;3.35;;;20.00;47.20;;;;;;5076730;28;20071;-68
2021/05/06 01:09:40;;;;;;;8.70;3.42;;;19.80;47.60;;;;;;5077891;28;20028;-68
2021/05/06 01:12:07;;;;;;;10.18;3.33;;;19.60;48.20;;;;;;5072470;28;20060;-68
2021/05/06 01:14:34;;;;;;;9.25;2.83;;;19.40;49.00;;;;;;5078458;28;20352;-68
2021/05/06 01:17:00;;;;;;;18.55;3.67;;;19.20;49.40;;;;;;5074019;28;20211;-68
2021/05/06 01:19:27;;;;;;;8.77;3.95;;;18.90;50.10;;;;;;5070610;28;20446;-67
2021/05/06 01:21:55;;;;;;;7.22;3.08;;;18.70;50.40;;;;;;5069292;28;20086;-68
2021/05/06 01:24:22;;;;;;;10.35;2.95;;;18.70;50.70;;;;;;5075613;28;20424;-68
2021/05/06 01:29:31;;;;;;;19.35;3.53;;;18.70;50.70;;;;;;5062380;28;20032;-68
2021/05/06 01:32:45;;;;;;;12.75;3.50;;;18.70;51.00;;;;;;5067059;28;20032;-68
2021/05/06 01:34:47;;;;;;;10.00;2.80;;;18.60;51.00;;;;;;5070562;28;20036;-67
2021/05/06 01:37:19;;;;;;;11.63;3.45;;;18.60;50.60;;;;;;5066269;28;20029;-68
2021/05/06 01:40:02;;;;;;;12.00;4.30;;;18.60;51.30;;;;;;5073411;28;20024;-68
2021/05/06 01:50:27;;;;;;;5.30;2.95;;;18.10;51.60;;;;;;5076588;28;20085;-69
2021/05/06 01:58:34;;;;;;;7.75;4.25;;;18.10;51.70;;;;;;5074613;28;20035;-69
2021/05/06 02:01:03;;;;;;;4.70;2.40;;;18.20;51.30;;;;;;5079457;28;20044;-68
2021/05/06 02:03:30;;;;;;;6.43;3.00;;;18.10;51.30;;;;;;5080760;28;20017;-68
2021/05/06 02:05:57;;;;;;;8.30;3.08;;;18.00;51.90;;;;;;5073489;28;20024;-69
2021/05/06 02:08:25;;;;;;;6.88;2.95;;;17.90;52.00;;;;;;5079793;28;20071;-69
2021/05/06 02:10:55;;;;;;;5.65;2.35;;;17.70;52.30;;;;;;5056919;28;20033;-68
2021/05/06 02:13:23;;;;;;;9.00;2.10;;;17.70;52.60;;;;;;5085101;28;20033;-68
2021/05/06 02:15:58;;;;;;;5.95;2.67;;;17.60;52.60;;;;;;5074229;28;20393;-69
2021/05/06 02:18:25;;;;;;;6.25;2.40;;;17.40;52.70;;;;;;5079097;28;20039;-68
2021/05/06 02:20:53;;;;;;;4.53;2.30;;;17.30;53.40;;;;;;5073628;28;20036;-68
2021/05/06 02:23:20;;;;;;;3.78;2.22;;;17.30;53.50;;;;;;5080620;28;20012;-71
2021/05/06 02:25:48;;;;;;;5.82;2.50;;;17.10;52.60;;;;;;5072187;28;20078;-71
2021/05/06 02:28:15;;;;;;;5.50;2.83;;;17.00;53.50;;;;;;5078897;28;20056;-69
2021/05/06 02:30:42;;;;;;;7.45;2.72;;;17.10;53.80;;;;;;5062130;28;20036;-68
2021/05/06 02:33:09;;;;;;;9.00;3.25;;;17.10;54.50;;;;;;5063334;28;20055;-68
2021/05/06 02:35:38;;;;;;;8.13;2.55;;;17.00;54.80;;;;;;5065809;28;20037;-68
2021/05/06 02:38:06;;;;;;;6.18;2.22;;;17.00;55.00;;;;;;5063547;28;20031;-68
2021/05/06 02:40:34;;;;;;;6.88;2.47;;;16.90;54.60;;;;;;5083955;28;20055;-68
2021/05/06 02:43:00;;;;;;;7.00;2.58;;;16.80;54.60;;;;;;5070471;28;20031;-68
2021/05/06 02:45:27;;;;;;;9.85;3.13;;;16.80;55.60;;;;;;5072930;28;20103;-68
2021/05/06 02:47:53;;;;;;;9.25;3.40;;;16.70;54.50;;;;;;5071658;28;20039;-68
2021/05/06 02:50:21;;;;;;;10.88;3.70;;;16.40;54.90;;;;;;5078004;28;20107;-70
2021/05/06 02:52:54;;;;;;;6.43;2.05;;;16.30;53.80;;;;;;5068627;28;20446;-69
2021/05/06 02:58:10;;;;;;;3.15;1.75;;;16.30;54.00;;;;;;5059739;28;19928;-69
2021/05/06 03:03:22;;;;;;;6.05;2.55;;;16.20;54.30;;;;;;5061523;28;20098;-69
2021/05/06 03:05:54;;;;;;;5.05;2.97;;;16.40;54.90;;;;;;5075237;28;20017;-69
2021/05/06 03:08:39;;;;;;;4.75;2.33;;;16.40;54.70;;;;;;5070852;28;20058;-69
2021/05/06 03:11:26;;;;;;;5.25;2.05;;;16.40;55.80;;;;;;5079884;28;20028;-68
2021/05/06 03:14:16;;;;;;;5.50;2.28;;;16.30;55.50;;;;;;5071504;28;20529;-69
2021/05/06 03:24:56;;;;;;;4.90;2.03;;;16.00;55.80;;;;;;5074483;28;20051;-69
2021/05/06 03:27:27;;;;;;;4.97;2.70;;;15.90;55.10;;;;;;5072987;28;20036;-70
2021/05/06 03:30:31;;;;;;;6.65;2.28;;;15.70;55.70;;;;;;5079114;28;20021;-70
2021/05/06 03:46:45;;;;;;;10.02;2.40;;;15.50;57.50;;;;;;5082238;28;20034;-72
2021/05/06 04:17:08;;;;;;;5.65;2.25;;;15.00;57.00;;;;;;5077556;28;20036;-69
2021/05/06 04:22:24;;;;;;;2.28;1.95;;;14.90;56.60;;;;;;5094166;28;20030;-69
2021/05/06 04:28:35;;;;;;;3.53;1.70;;;14.90;57.00;;;;;;5094852;28;20074;-69
2021/05/06 04:36:00;;;;;;;5.85;1.90;;;15.00;56.50;;;;;;5072427;28;20058;-69
2021/05/06 04:38:26;;;;;;;6.25;2.17;;;14.90;56.70;;;;;;5085272;28;20074;-69
2021/05/06 04:46:40;;;;;;;8.18;1.95;;;14.80;57.60;;;;;;5073240;28;20109;-69
2021/05/06 04:54:47;;;;;;;5.80;2.15;;;14.70;58.10;;;;;;5080856;28;20481;-69
2021/05/06 05:05:27;;;;;;;3.35;2.03;;;14.70;57.90;;;;;;5091412;28;20378;-69
2021/05/06 05:08:01;;;;;;;5.40;3.38;;;14.70;57.90;;;;;;5074362;28;20025;-69
2021/05/06 05:13:12;;;;;;;5.25;2.38;;;14.70;58.10;;;;;;5068718;28;20032;-69
2021/05/06 05:18:45;;;;;;;7.60;2.35;;;14.70;56.80;;;;;;5064236;28;20418;-69
2021/05/06 05:21:18;;;;;;;4.80;1.75;;;14.70;57.10;;;;;;5071759;28;20039;-69
2021/05/06 05:23:48;;;;;;;7.10;3.22;;;14.70;57.00;;;;;;5073712;28;20355;-69
2021/05/06 05:26:15;;;;;;;9.23;1.90;;;14.60;57.70;;;;;;5081945;28;20017;-69
2021/05/06 05:28:42;;;;;;;4.07;2.08;;;14.60;58.40;;;;;;5073341;28;20029;-69
2021/05/06 05:31:08;;;;;;;4.13;1.98;;;14.50;57.70;;;;;;5072244;28;20103;-69
2021/05/06 05:33:46;;;;;;;3.78;2.33;;;14.40;57.60;;;;;;5069482;28;20040;-69
2021/05/06 05:36:19;;;;;;;6.82;2.38;;;14.50;57.80;;;;;;5079119;28;20114;-69
2021/05/06 05:38:53;;;;;;;9.55;2.95;;;14.30;58.90;;;;;;5079122;28;20028;-69
2021/05/06 05:41:52;;;;;;;10.35;3.38;;;14.20;57.00;;;;;;5072770;28;20089;-69
2021/05/06 05:47:55;;;;;;;11.63;2.42;;;14.20;58.20;;;;;;5089587;28;20368;-69
2021/05/06 05:55:20;;;;;;;8.07;2.58;;;14.20;58.20;;;;;;5072299;28;20036;-69
2021/05/06 05:57:51;;;;;;;6.15;1.95;;;14.20;58.50;;;;;;5090806;28;20085;-68
2021/05/06 06:00:18;;;;;;;5.00;2.60;;;14.10;58.70;;;;;;5073191;28;20040;-68
2021/05/06 06:02:44;;;;;;;9.27;2.45;;;14.20;57.90;;;;;;5086480;28;20540;-68
2021/05/06 06:05:11;;;;;;;8.48;2.55;;;14.10;58.70;;;;;;5064631;28;20021;-68
2021/05/06 06:07:38;;;;;;;7.80;2.50;;;14.10;57.10;;;;;;5083781;28;20119;-69
2021/05/06 06:10:05;;;;;;;4.47;2.22;;;14.00;57.20;;;;;;5074806;28;20050;-68
2021/05/06 06:12:32;;;;;;;8.38;2.55;;;14.00;57.90;;;;;;5081186;28;20067;-68
2021/05/06 06:15:04;;;;;;;7.90;2.75;;;14.10;58.60;;;;;;5076368;28;20446;-69
2021/05/06 06:17:37;;;;;;;10.73;2.35;;;14.00;59.40;;;;;;5077847;28;20032;-69
2021/05/06 06:20:04;;;;;;;7.15;2.45;;;14.00;58.40;;;;;;5079052;28;20171;-69
2021/05/06 06:22:31;;;;;;;4.82;2.20;;;13.90;58.70;;;;;;5071480;28;20077;-68
2021/05/06 06:25:01;;;;;;;8.48;3.22;;;13.90;59.50;;;;;;5082604;28;20115;-68
2021/05/06 06:27:29;;;;;;;7.10;2.35;;;13.90;59.00;;;;;;5071942;28;20385;-68
2021/05/06 06:29:56;;;;;;;5.95;2.83;;;14.00;59.20;;;;;;5076320;28;20435;-69
2021/05/06 06:32:22;;;;;;;6.53;3.03;;;14.00;57.30;;;;;;5072526;28;20108;-69
2021/05/06 06:34:48;;;;;;;8.10;2.70;;;14.00;58.80;;;;;;5076061;28;20055;-69
2021/05/06 06:37:18;;;;;;;7.15;2.78;;;13.90;58.00;;;;;;5077378;28;20036;-68
2021/05/06 06:39:44;;;;;;;6.65;2.95;;;14.00;58.30;;;;;;5083518;28;20035;-68
2021/05/06 06:42:11;;;;;;;11.93;3.22;;;14.00;58.80;;;;;;5076385;28;20020;-68
2021/05/06 06:44:38;;;;;;;16.40;3.75;;;13.90;57.60;;;;;;5075055;28;20032;-68
2021/05/06 06:47:07;;;;;;;5.97;2.05;;;13.90;58.90;;;;;;5077528;28;20059;-68
2021/05/06 06:49:38;;;;;;;5.82;2.80;;;13.80;58.90;;;;;;5075443;28;20036;-68
2021/05/06 06:52:09;;;;;;;5.05;2.50;;;13.80;57.80;;;;;;5077367;28;20032;-68
2021/05/06 06:54:36;;;;;;;3.70;2.58;;;13.80;58.90;;;;;;5073098;28;20054;-68
2021/05/06 06:57:05;;;;;;;9.65;2.65;;;13.80;58.00;;;;;;5079710;28;20017;-69
2021/05/06 06:59:31;;;;;;;10.45;2.80;;;13.80;57.70;;;;;;5071959;28;20350;-68
2021/05/06 07:01:58;;;;;;;10.02;2.88;;;13.80;57.40;;;;;;5074794;28;20458;-69
2021/05/06 07:04:24;;;;;;;7.40;2.50;;;13.80;59.00;;;;;;5071279;28;20029;-69
2021/05/06 07:06:50;;;;;;;11.32;3.00;;;13.80;57.10;;;;;;5082177;28;20043;-69
2021/05/06 07:09:17;;;;;;;4.57;2.25;;;13.80;57.50;;;;;;5074979;28;20078;-69
2021/05/06 07:11:43;;;;;;;7.55;3.42;;;13.80;58.70;;;;;;5074716;28;20450;-69
2021/05/06 07:14:10;;;;;;;8.65;2.78;;;13.70;58.90;;;;;;5081418;28;20029;-69
2021/05/06 07:16:36;;;;;;;7.97;3.00;;;13.70;57.40;;;;;;5079250;28;20028;-69
2021/05/06 07:19:03;;;;;;;4.90;3.45;;;13.70;56.70;;;;;;5083527;28;20028;-68
2021/05/06 07:21:30;;;;;;;9.10;2.63;;;13.70;59.10;;;;;;5077267;28;20035;-68
2021/05/06 07:23:57;;;;;;;4.35;2.20;;;13.70;58.90;;;;;;5074003;28;20020;-69
2021/05/06 07:26:25;;;;;;;5.32;2.47;;;13.60;59.20;;;;;;5072339;28;20056;-68
2021/05/06 07:28:55;;;;;;;11.40;3.58;;;13.60;59.60;;;;;;5086540;28;20429;-68
2021/05/06 07:31:22;;;;;;;9.15;3.30;;;13.70;58.30;;;;;;5076298;28;20474;-69
2021/05/06 07:33:50;;;;;;;5.07;2.80;;;13.70;57.60;;;;;;5078116;28;20043;-69
2021/05/06 07:36:18;;;;;;;4.05;2.28;;;13.70;57.70;;;;;;5075030;28;20021;-69
2021/05/06 07:38:48;;;;;;;10.77;4.55;;;13.70;57.30;;;;;;5087414;28;20039;-68
2021/05/06 07:41:16;;;;;;;9.13;2.70;;;13.70;58.70;;;;;;5075731;28;20069;-69
2021/05/06 07:43:43;;;;;;;4.15;2.80;;;13.70;59.40;;;;;;5076748;28;20027;-69
2021/05/06 07:46:11;;;;;;;6.60;2.28;;;13.70;58.90;;;;;;5094340;28;20035;-69
2021/05/06 07:48:37;;;;;;;7.35;3.08;;;13.50;58.70;;;;;;5086833;28;20078;-69
2021/05/06 07:51:04;;;;;;;9.25;2.40;;;13.50;58.70;;;;;;5084199;28;20073;-69
2021/05/06 07:53:48;;;;;;;8.23;3.10;;;13.50;58.70;;;;;;5076807;28;20036;-69
2021/05/06 07:56:15;;;;;;;4.60;2.13;;;13.50;58.50;;;;;;5076534;28;20041;-69
2021/05/06 07:58:42;;;;;;;6.65;2.92;;;13.50;58.60;;;;;;5075913;28;20358;-69
2021/05/06 08:01:09;;;;;;;11.25;2.72;;;13.40;60.30;;;;;;5075882;28;20078;-69
2021/05/06 08:03:37;;;;;;;7.38;2.50;;;13.40;59.70;;;;;;5075108;28;20385;-68
2021/05/06 08:06:03;;;;;;;4.97;2.10;;;13.50;58.90;;;;;;5092281;28;20748;-70
2021/05/06 08:08:30;;;;;;;7.68;3.45;;;13.50;60.10;;;;;;5083656;28;20373;-68
2021/05/06 08:10:58;;;;;;;7.53;2.40;;;13.40;59.40;;;;;;5082929;28;20093;-69
2021/05/06 08:13:28;;;;;;;6.15;2.45;;;13.30;58.50;;;;;;5078589;28;20458;-69
2021/05/06 08:15:56;;;;;;;10.32;2.85;;;13.30;59.70;;;;;;5076607;28;20044;-69
2021/05/06 08:18:24;;;;;;;7.28;2.72;;;13.30;60.00;;;;;;5078479;28;20067;-69
2021/05/06 08:20:50;;;;;;;7.18;2.83;;;13.30;57.80;;;;;;5079167;28;20028;-69
2021/05/06 08:23:17;;;;;;;7.68;4.00;;;13.40;58.30;;;;;;5082947;28;20412;-68
2021/05/06 08:25:43;;;;;;;3.95;2.38;;;13.30;58.70;;;;;;5073754;28;20029;-68
2021/05/06 08:28:10;;;;;;;12.05;3.15;;;13.30;58.20;;;;;;5079978;28;20036;-72
2021/05/06 08:30:37;;;;;;;7.13;2.95;;;13.40;59.90;;;;;;5076719;28;20064;-71
2021/05/06 08:33:04;;;;;;;6.80;2.67;;;13.30;58.80;;;;;;5083314;28;20158;-72
2021/05/06 08:35:31;;;;;;;8.05;3.58;;;13.20;59.90;;;;;;5076328;28;20123;-71
2021/05/06 08:37:58;;;;;;;7.13;2.88;;;13.20;59.90;;;;;;5089161;28;20028;-70
2021/05/06 08:40:24;;;;;;;5.05;2.17;;;13.10;60.80;;;;;;5078875;28;20020;-71
2021/05/06 08:42:54;;;;;;;5.28;3.00;;;13.10;60.00;;;;;;5076243;28;20024;-71
2021/05/06 08:45:23;;;;;;;7.60;2.97;;;13.10;60.30;;;;;;5079310;28;20085;-70
2021/05/06 08:47:52;;;;;;;7.13;3.30;;;13.10;58.70;;;;;;5084259;28;20032;-71
2021/05/06 08:50:19;;;;;;;8.40;3.85;;;13.00;59.80;;;;;;5091137;28;20028;-71
2021/05/06 08:52:49;;;;;;;7.72;3.42;;;13.10;59.10;;;;;;5080911;28;20028;-70
2021/05/06 08:55:16;;;;;;;6.93;3.20;;;13.10;58.20;;;;;;5094667;28;20028;-70
2021/05/06 08:57:43;;;;;;;9.65;3.08;;;13.00;58.80;;;;;;5079711;28;20097;-70
2021/05/06 09:00:10;;;;;;;5.03;2.58;;;13.00;59.60;;;;;;5094710;28;20024;-70
2021/05/06 09:02:44;;;;;;;7.00;3.00;;;13.00;60.60;;;;;;5091919;28;20100;-71
2021/05/06 09:05:10;;;;;;;11.18;4.30;;;12.90;60.20;;;;;;5091347;28;20044;-70
2021/05/06 09:07:45;;;;;;;10.00;3.28;;;13.00;59.10;;;;;;5087835;28;20032;-70
2021/05/06 09:10:42;;;;;;;11.27;3.35;;;13.00;59.60;;;;;;5082921;28;20458;-71
2021/05/06 09:13:29;;;;;;;7.18;3.60;;;13.00;59.10;;;;;;5091788;28;20028;-71
2021/05/06 09:15:56;;;;;;;4.35;3.28;;;12.90;60.40;;;;;;5075301;28;20111;-70
2021/05/06 09:18:42;;;;;;;12.45;3.83;;;12.80;61.10;;;;;;5074081;28;20029;-70
2021/05/06 09:21:26;;;;;;;7.93;3.47;;;12.80;61.60;;;;;;5082012;28;20020;-71
2021/05/06 09:24:22;;;;;;;15.65;3.88;;;12.90;60.70;;;;;;5078911;28;20020;-71
2021/05/06 09:26:51;;;;;;;10.95;3.45;;;12.80;59.10;;;;;;5082508;28;20182;-70
2021/05/06 09:29:45;;;;;;;10.48;3.72;;;12.80;61.00;;;;;;5065841;28;20028;-70
2021/05/06 09:32:23;;;;;;;11.35;4.00;;;12.80;59.90;;;;;;5083792;28;20027;-71
2021/05/06 09:34:54;;;;;;;4.20;3.10;;;12.80;60.70;;;;;;5070547;28;20028;-71
2021/05/06 09:37:30;;;;;;;9.18;3.15;;;12.80;61.30;;;;;;5079561;28;20416;-71
2021/05/06 09:40:06;;;;;;;7.43;3.00;;;12.70;61.60;;;;;;5067820;28;20021;-70
2021/05/06 09:42:45;;;;;;;7.82;2.58;;;12.70;61.40;;;;;;5084484;28;20420;-70
2021/05/06 09:45:26;;;;;;;4.20;3.00;;;12.70;61.50;;;;;;5077260;28;20017;-70
2021/05/06 09:48:12;;;;;;;9.10;3.10;;;12.70;60.70;;;;;;5085648;28;20036;-71
2021/05/06 09:50:40;;;;;;;8.57;3.45;;;12.70;59.10;;;;;;5061169;28;20025;-70
2021/05/06 09:53:12;;;;;;;6.05;2.95;;;12.70;60.60;;;;;;5073651;28;20028;-71
2021/05/06 09:55:40;;;;;;;6.13;2.85;;;12.70;61.00;;;;;;5073699;28;20028;-71
2021/05/06 09:58:20;;;;;;;4.45;2.75;;;12.70;59.70;;;;;;5086913;28;20166;-71
2021/05/06 10:00:48;;;;;;;3.88;2.67;;;12.60;60.80;;;;;;5073190;28;20413;-70
2021/05/06 10:03:21;;;;;;;4.53;3.03;;;12.60;61.00;;;;;;5083724;28;20331;-71
2021/05/06 10:05:50;;;;;;;3.15;2.63;;;12.60;61.00;;;;;;5075767;28;20028;-70
2021/05/06 10:08:17;;;;;;;5.68;2.85;;;12.50;60.90;;;;;;5086447;28;20047;-70
2021/05/06 10:10:44;;;;;;;7.30;3.08;;;12.50;60.90;;;;;;5110719;28;20178;-70
2021/05/06 10:13:11;;;;;;;3.05;2.45;;;12.50;60.80;;;;;;5087463;28;20029;-71
2021/05/06 10:15:40;;;;;;;5.80;2.83;;;12.40;60.60;;;;;;5083943;28;20489;-71
2021/05/06 10:18:07;;;;;;;4.97;3.08;;;12.50;58.80;;;;;;5076149;28;20041;-71
2021/05/06 10:20:34;;;;;;;3.17;2.88;;;12.50;58.20;;;;;;5076258;28;20017;-71
2021/05/06 10:23:02;;;;;;;9.73;4.38;;;12.50;59.60;;;;;;5072492;28;20107;-71
2021/05/06 10:25:29;;;;;;;6.97;3.22;;;12.50;59.60;;;;;;5074911;28;20044;-70
2021/05/06 10:27:56;;;;;;;5.35;2.97;;;12.60;58.50;;;;;;5072175;28;20035;-70
2021/05/06 10:30:23;;;;;;;3.25;2.65;;;12.60;58.80;;;;;;5079313;28;20110;-70
2021/05/06 10:32:50;;;;;;;3.50;2.88;;;12.80;60.50;;;;;;5080149;28;20399;-70
2021/05/06 10:35:21;;;;;;;4.30;2.88;;;12.70;60.10;;;;;;5084371;28;20450;-70
2021/05/06 10:37:59;;;;;;;4.35;2.85;;;12.70;60.50;;;;;;5065269;28;20107;-70
2021/05/06 10:40:37;;;;;;;8.23;2.97;;;12.50;59.60;;;;;;5071986;28;20021;-70
2021/05/06 10:43:23;;;;;;;9.25;3.42;;;12.50;59.80;;;;;;5073849;28;20142;-70
2021/05/06 10:46:01;;;;;;;5.53;3.05;;;12.40;59.60;;;;;;5068661;28;20025;-70
2021/05/06 10:48:57;;;;;;;5.55;3.28;;;12.30;60.10;;;;;;5059093;28;20033;-70
2021/05/06 10:51:40;;;;;;;3.28;2.45;;;12.20;60.50;;;;;;5073067;28;20036;-71
2021/05/06 10:54:29;;;;;;;7.43;3.97;;;12.20;60.30;;;;;;5072994;28;20370;-71
2021/05/06 10:56:57;;;;;;;4.43;2.47;;;12.20;59.70;;;;;;5081269;28;20458;-70
2021/05/06 10:59:31;;;;;;;9.60;3.08;;;12.20;60.90;;;;;;5068764;28;20048;-70
2021/05/06 11:01:59;;;;;;;9.05;3.53;;;12.20;60.00;;;;;;5072389;28;20027;-70
2021/05/06 11:04:32;;;;;;;8.98;3.05;;;12.20;60.70;;;;;;5073070;28;20029;-70
2021/05/06 11:07:19;;;;;;;11.43;2.85;;;12.20;59.80;;;;;;5081433;28;20043;-70
2021/05/06 11:09:49;;;;;;;13.02;3.28;;;12.20;60.20;;;;;;5080533;28;20050;-70
2021/05/06 11:12:16;;;;;;;5.68;3.60;;;12.20;59.40;;;;;;5080587;28;20028;-70
2021/05/06 11:15:01;;;;;;;10.25;3.20;;;12.20;59.80;;;;;;5090350;28;20133;-70
2021/05/06 11:17:34;;;;;;;4.70;3.35;;;12.10;60.10;;;;;;5079592;28;20028;-70
2021/05/06 11:20:02;;;;;;;9.88;3.60;;;12.00;61.70;;;;;;5074281;28;20017;-70
2021/05/06 11:22:43;;;;;;;9.48;4.38;;;12.00;62.00;;;;;;5075149;28;20425;-70
2021/05/06 11:25:47;;;;;;;7.23;3.33;;;12.00;60.40;;;;;;5071095;28;20511;-70
2021/05/06 11:28:19;;;;;;;12.68;3.47;;;11.90;59.90;;;;;;5065473;28;20029;-71
2021/05/06 11:30:48;;;;;;;8.15;3.60;;;12.00;60.30;;;;;;5075117;28;20100;-70
2021/05/06 11:36:02;;;;;;;6.85;3.55;;;12.00;60.90;;;;;;5080323;28;20123;-70
2021/05/06 11:41:14;;;;;;;9.00;3.25;;;11.90;61.00;;;;;;5071513;28;20032;-70
2021/05/06 11:43:55;;;;;;;11.60;3.95;;;11.90;61.30;;;;;;5072985;28;20110;-69
2021/05/06 11:46:29;;;;;;;8.15;3.35;;;11.90;60.20;;;;;;5080434;28;20464;-69
2021/05/06 11:49:04;;;;;;;8.93;3.60;;;11.90;60.00;;;;;;5073926;28;20635;-69
2021/05/06 11:51:32;;;;;;;7.70;3.47;;;12.00;60.90;;;;;;5080030;28;20044;-70
2021/05/06 11:54:09;;;;;;;5.40;3.70;;;12.10;62.10;;;;;;5072281;28;20119;-69
2021/05/06 11:56:38;;;;;;;10.48;3.65;;;12.20;62.70;;;;;;5073202;28;20107;-70
2021/05/06 11:59:07;;;;;;;7.93;4.20;;;12.20;62.70;;;;;;5058348;28;20017;-70
2021/05/06 12:01:33;;;;;;;15.75;3.90;;;12.30;63.40;;;;;;5075413;28;20024;-70
2021/05/06 12:04:00;;;;;;;7.70;3.70;;;12.30;63.10;;;;;;5079915;28;20027;-70
2021/05/06 12:06:36;;;;;;;6.68;3.67;;;12.20;62.30;;;;;;5083751;28;20047;-70
2021/05/06 12:09:07;;;;;;;9.43;3.53;;;12.10;62.30;;;;;;5070024;28;20056;-69
2021/05/06 12:11:41;;;;;;;7.00;3.05;;;12.10;62.50;;;;;;5089430;28;20035;-70
2021/05/06 12:14:09;;;;;;;4.57;3.00;;;12.00;63.10;;;;;;5081763;28;20454;-69
2021/05/06 12:16:37;;;;;;;5.95;2.88;;;12.00;61.70;;;;;;5072994;28;20422;-70
2021/05/06 12:19:11;;;;;;;8.55;2.97;;;12.00;62.60;;;;;;5085793;28;20420;-70
2021/05/06 12:21:54;;;;;;;9.23;3.20;;;12.10;62.70;;;;;;5079061;28;20361;-70
2021/05/06 12:24:33;;;;;;;5.57;3.17;;;12.10;63.10;;;;;;5079449;28;20025;-70
2021/05/06 12:27:14;;;;;;;11.38;3.80;;;12.00;62.60;;;;;;5076283;28;20029;-70
2021/05/06 12:29:41;;;;;;;10.32;3.58;;;11.90;63.30;;;;;;5082594;28;20025;-70
2021/05/06 12:32:15;;;;;;;3.90;2.78;;;11.90;63.80;;;;;;5079639;28;20024;-70
2021/05/06 12:34:41;;;;;;;7.65;4.07;;;11.80;64.70;;;;;;5084518;28;20441;-70
2021/05/06 12:37:08;;;;;;;13.77;3.80;;;11.80;63.80;;;;;;5076561;28;20054;-70
2021/05/06 12:39:34;;;;;;;7.32;3.40;;;11.90;62.20;;;;;;5088692;28;20384;-70
2021/05/06 12:42:05;;;;;;;10.07;5.13;;;11.80;64.20;;;;;;5077642;28;20074;-70
2021/05/06 12:44:43;;;;;;;5.03;2.97;;;11.80;63.80;;;;;;5079596;28;20029;-70
2021/05/06 12:47:13;;;;;;;5.47;3.25;;;11.80;63.90;;;;;;5075300;28;20315;-70
2021/05/06 12:49:40;;;;;;;7.45;3.88;;;11.90;62.60;;;;;;5089567;28;20419;-69
2021/05/06 12:52:07;;;;;;;13.52;3.20;;;11.90;62.90;;;;;;5075360;28;20033;-70
2021/05/06 12:54:35;;;;;;;10.77;3.88;;;11.90;63.50;;;;;;5077117;28;20035;-70
2021/05/06 12:57:17;;;;;;;10.35;3.28;;;11.90;63.80;;;;;;5075662;28;20025;-70
2021/05/06 12:59:50;;;;;;;15.85;4.03;;;11.80;63.40;;;;;;5069152;28;20331;-70
2021/05/06 13:02:20;;;;;;;5.10;2.90;;;11.90;62.10;;;;;;5071926;28;20029;-70
2021/05/06 13:04:50;;;;;;;6.53;2.97;;;11.80;63.70;;;;;;5075522;28;20040;-70
2021/05/06 13:07:18;;;;;;;4.20;2.85;;;11.80;63.40;;;;;;5077567;28;20107;-70
2021/05/06 13:09:49;;;;;;;13.05;2.97;;;11.80;63.50;;;;;;5078484;28;20487;-70
2021/05/06 13:12:18;;;;;;;9.13;3.42;;;11.80;62.80;;;;;;5085949;28;20036;-70
2021/05/06 13:15:03;;;;;;;3.28;2.38;;;11.70;63.50;;;;;;5078456;28;20180;-70
2021/05/06 13:17:34;;;;;;;6.65;2.55;;;11.70;63.10;;;;;;5079493;28;20043;-70
2021/05/06 13:20:20;;;;;;;3.33;2.63;;;11.70;63.30;;;;;;5075319;28;20085;-70
2021/05/06 13:23:07;;;;;;;7.35;2.60;;;11.70;62.30;;;;;;5074350;28;20050;-70
2021/05/06 13:25:50;;;;;;;4.22;2.90;;;11.70;62.40;;;;;;5071009;28;20451;-70
2021/05/06 13:28:33;;;;;;;6.65;4.65;;;11.80;60.70;;;;;;5074584;28;20480;-70
2021/05/06 13:31:16;;;;;;;9.48;3.35;;;11.80;61.10;;;;;;5078007;28;20093;-70
2021/05/06 13:33:43;;;;;;;8.45;2.90;;;11.70;62.50;;;;;;5076757;28;20036;-70
2021/05/06 13:36:15;;;;;;;10.27;3.90;;;11.70;62.90;;;;;;5073527;28;20035;-70
2021/05/06 13:38:55;;;;;;;8.25;3.35;;;11.80;61.60;;;;;;5074266;28;20032;-70
2021/05/06 13:41:27;;;;;;;18.58;3.75;;;11.80;61.60;;;;;;5073751;28;20040;-70
2021/05/06 13:43:55;;;;;;;10.77;4.03;;;11.80;61.50;;;;;;5089963;28;20531;-70
2021/05/06 13:46:23;;;;;;;8.13;3.17;;;11.90;61.50;;;;;;5074925;28;20082;-70
2021/05/06 13:48:51;;;;;;;10.73;4.03;;;12.00;61.20;;;;;;5078179;28;20119;-70
2021/05/06 13:51:18;;;;;;;5.47;3.47;;;12.10;61.90;;;;;;5065834;28;20075;-70
2021/05/06 13:53:46;;;;;;;10.40;3.83;;;12.10;61.40;;;;;;5079654;28;20032;-70
2021/05/06 13:56:13;;;;;;;5.72;3.28;;;12.10;62.40;;;;;;5078947;28;20304;-70
2021/05/06 13:58:40;;;;;;;9.82;3.78;;;12.10;63.30;;;;;;5076620;28;20044;-70
2021/05/06 14:01:10;;;;;;;9.45;3.08;;;12.20;61.40;;;;;;5077109;28;20104;-70
2021/05/06 14:03:37;;;;;;;15.18;3.38;;;12.30;62.40;;;;;;5074759;28;20048;-71
2021/05/06 14:06:05;;;;;;;6.65;2.58;;;12.30;62.30;;;;;;5076754;28;20031;-71
2021/05/06 14:08:32;;;;;;;8.63;3.10;;;12.40;62.80;;;;;;5077427;28;20111;-70
2021/05/06 14:10:59;;;;;;;6.00;2.97;;;12.50;62.20;;;;;;5079307;28;20359;-70
2021/05/06 14:13:26;;;;;;;9.80;3.22;;;12.60;62.60;;;;;;5082033;28;20422;-70
2021/05/06 14:15:53;;;;;;;11.65;3.55;;;12.70;63.10;;;;;;5082563;28;20498;-70
2021/05/06 14:18:20;;;;;;;18.90;3.78;;;12.80;62.90;;;;;;5071354;28;20051;-71
2021/05/06 14:20:47;;;;;;;11.52;3.58;;;12.90;62.30;;;;;;5077894;28;20461;-70
2021/05/06 14:23:17;;;;;;;7.80;2.25;;;13.00;62.40;;;;;;5054694;28;20098;-70
2021/05/06 14:25:44;;;;;;;9.35;2.63;;;13.00;62.20;;;;;;5080137;28;20345;-70
2021/05/06 14:28:11;;;;;;;9.10;2.58;;;13.10;63.30;;;;;;5082730;28;20344;-70
2021/05/06 14:30:37;;;;;;;12.73;3.90;;;13.20;62.70;;;;;;5079153;28;20032;-71
2021/05/06 14:33:04;;;;;;;3.80;2.17;;;13.20;62.30;;;;;;5072870;28;20029;-70
2021/05/06 14:35:31;;;;;;;7.72;2.38;;;13.30;62.30;;;;;;5074991;28;20028;-70
2021/05/06 14:37:58;;;;;;;10.10;2.53;;;13.60;62.70;;;;;;5072480;28;20029;-70
2021/05/06 14:40:24;;;;;;;7.43;2.38;;;13.50;62.00;;;;;;5065320;28;20095;-71
2021/05/06 14:42:51;;;;;;;14.88;2.85;;;13.70;61.80;;;;;;5076713;28;20078;-70
2021/05/06 14:45:17;;;;;;;8.45;2.78;;;13.70;61.20;;;;;;5069393;28;20012;-71
2021/05/06 14:47:43;;;;;;;3.22;1.90;;;13.50;61.90;;;;;;5071766;28;20112;-71
2021/05/06 14:50:13;;;;;;;2.80;1.77;;;13.60;61.30;;;;;;5071443;28;20025;-71
2021/05/06 14:52:40;;;;;;;3.72;2.75;;;13.60;61.10;;;;;;5073035;28;20429;-71
2021/05/06 14:55:09;;;;;;;3.47;1.73;;;13.90;60.10;;;;;;5062431;28;20036;-71
2021/05/06 14:57:36;;;;;;;6.13;1.58;;;13.80;60.40;;;;;;5080781;28;20033;-71
2021/05/06 15:00:05;;;;;;;5.30;1.90;;;13.70;60.30;;;;;;5080823;28;20111;-71
2021/05/06 15:02:32;;;;;;;13.35;3.05;;;13.70;60.00;;;;;;5065958;28;20046;-71
2021/05/06 15:04:58;;;;;;;3.95;1.40;;;13.60;60.00;;;;;;5078136;28;20115;-69
2021/05/06 15:07:24;;;;;;;5.75;1.67;;;13.90;59.00;;;;;;5071266;28;20400;-69
2021/05/06 15:09:51;;;;;;;4.03;1.50;;;13.80;57.90;;;;;;5073414;28;20028;-69
2021/05/06 15:12:17;;;;;;;4.93;1.58;;;14.10;59.20;;;;;;5071610;28;20036;-69
2021/05/06 15:14:44;;;;;;;3.28;1.40;;;14.30;58.50;;;;;;5073501;28;20039;-69
2021/05/06 15:17:10;;;;;;;3.05;1.23;;;14.10;57.20;;;;;;5064389;28;20028;-69
2021/05/06 15:19:36;;;;;;;2.63;1.23;;;14.20;57.50;;;;;;5069655;28;20020;-70
2021/05/06 15:22:03;;;;;;;2.20;1.42;;;14.40;58.10;;;;;;5069112;28;20455;-69
2021/05/06 15:24:45;;;;;;;2.97;1.25;;;14.40;57.20;;;;;;5075906;28;20039;-69
2021/05/06 15:27:12;;;;;;;2.00;1.40;;;14.60;56.70;;;;;;5065186;28;20102;-70
2021/05/06 15:30:13;;;;;;;5.90;1.50;;;14.60;57.10;;;;;;5077943;28;20512;-70
2021/05/06 15:32:38;;;;;;;1.92;1.48;;;14.80;57.20;;;;;;5087328;28;20470;-70
2021/05/06 15:35:46;;;;;;;4.10;1.30;;;14.60;56.20;;;;;;5073121;28;20073;-69
2021/05/06 15:38:34;;;;;;;5.32;1.73;;;14.80;55.70;;;;;;5073330;28;20436;-69
2021/05/06 15:41:17;;;;;;;;;;;;;;;;;;;;;
2021/05/06 15:43:50;;;;;;;10.93;1.40;;;14.90;55.30;;;;;;5068631;28;20339;-70
2021/05/06 15:46:32;;;;;;;6.18;2.20;;;15.20;54.40;;;;;;5073534;28;20020;-69
2021/05/06 15:49:08;;;;;;;4.72;2.08;;;15.20;55.10;;;;;;5062021;28;20426;-71
2021/05/06 15:51:41;;;;;;;7.28;2.10;;;15.30;56.10;;;;;;5091696;28;20038;-69
2021/05/06 15:54:09;;;;;;;5.88;2.10;;;15.40;56.40;;;;;;5071630;28;20028;-69
2021/05/06 15:56:45;;;;;;;4.15;2.03;;;15.40;56.50;;;;;;5072282;28;20174;-69
2021/05/06 15:59:33;;;;;;;13.68;2.30;;;15.40;57.00;;;;;;5072552;28;20036;-70